sensor_id;sensor_type;location;lat;lon;timestamp;P1;durP1;ratioP1;P2;durP2;ratioP2
52102;SDS011;38101;53.126;6.878;2022-08-18T00:02:13;12.02;;;7.40;;
52102;SDS011;38101;53.126;6.878;2022-08-18T00:04:42;16.70;;;7.80;;
52102;SDS011;38101;53.126;6.878;2022-08-18T00:07:09;15.88;;;7.38;;
52102;SDS011;38101;53.126;6.878;2022-08-18T00:09:38;10.68;;;7.13;;
52102;SDS011;38101;53.126;6.878;2022-08-18T00:12:07;9.23;;;6.78;;
52102;SDS011;38101;53.126;6.878;2022-08-18T00:14:39;14.93;;;7.82;;
52102;SDS011;38101;53.126;6.878;2022-08-18T00:17:06;13.27;;;7.60;;
52102;SDS011;38101;53.126;6.878;2022-08-18T00:19:31;14.15;;;7.88;;
52102;SDS011;38101;53.126;6.878;2022-08-18T00:21:57;17.75;;;8.57;;
52102;SDS011;38101;53.126;6.878;2022-08-18T00:24:23;12.20;;;8.23;;
52102;SDS011;38101;53.126;6.878;2022-08-18T00:26:49;13.60;;;8.77;;
52102;SDS011;38101;53.126;6.878;2022-08-18T00:29:15;12.63;;;7.55;;
52102;SDS011;38101;53.126;6.878;2022-08-18T00:31:41;13.25;;;8.60;;
52102;SDS011;38101;53.126;6.878;2022-08-18T00:34:06;10.18;;;7.47;;
52102;SDS011;38101;53.126;6.878;2022-08-18T00:36:32;14.85;;;7.78;;
52102;SDS011;38101;53.126;6.878;2022-08-18T00:38:59;11.77;;;7.90;;
52102;SDS011;38101;53.126;6.878;2022-08-18T00:41:26;11.48;;;6.93;;
52102;SDS011;38101;53.126;6.878;2022-08-18T00:43:53;10.55;;;7.18;;
52102;SDS011;38101;53.126;6.878;2022-08-18T00:46:27;8.68;;;6.95;;
52102;SDS011;38101;53.126;6.878;2022-08-18T00:53:55;9.85;;;7.80;;
52102;SDS011;38101;53.126;6.878;2022-08-18T00:56:27;13.45;;;7.38;;
52102;SDS011;38101;53.126;6.878;2022-08-18T00:59:03;11.63;;;7.90;;
52102;SDS011;38101;53.126;6.878;2022-08-18T01:01:33;11.00;;;7.55;;
52102;SDS011;38101;53.126;6.878;2022-08-18T01:04:34;9.68;;;7.43;;
52102;SDS011;38101;53.126;6.878;2022-08-18T01:07:01;11.90;;;7.40;;
52102;SDS011;38101;53.126;6.878;2022-08-18T01:09:49;10.27;;;7.78;;
52102;SDS011;38101;53.126;6.878;2022-08-18T01:12:16;12.43;;;7.63;;
52102;SDS011;38101;53.126;6.878;2022-08-18T01:14:43;12.75;;;7.65;;
52102;SDS011;38101;53.126;6.878;2022-08-18T01:17:10;13.90;;;7.82;;
52102;SDS011;38101;53.126;6.878;2022-08-18T01:19:55;11.95;;;7.60;;
52102;SDS011;38101;53.126;6.878;2022-08-18T01:25:19;10.88;;;7.03;;
52102;SDS011;38101;53.126;6.878;2022-08-18T01:28:05;12.55;;;8.07;;
52102;SDS011;38101;53.126;6.878;2022-08-18T01:30:32;9.80;;;7.63;;
52102;SDS011;38101;53.126;6.878;2022-08-18T01:33:09;10.65;;;7.10;;
52102;SDS011;38101;53.126;6.878;2022-08-18T01:35:36;14.70;;;8.02;;
52102;SDS011;38101;53.126;6.878;2022-08-18T01:38:04;14.65;;;8.07;;
52102;SDS011;38101;53.126;6.878;2022-08-18T01:40:30;16.75;;;8.85;;
52102;SDS011;38101;53.126;6.878;2022-08-18T01:42:56;16.27;;;8.57;;
52102;SDS011;38101;53.126;6.878;2022-08-18T01:45:22;13.30;;;8.07;;
52102;SDS011;38101;53.126;6.878;2022-08-18T01:47:48;16.05;;;8.20;;
52102;SDS011;38101;53.126;6.878;2022-08-18T01:50:15;14.50;;;8.88;;
52102;SDS011;38101;53.126;6.878;2022-08-18T01:52:41;18.65;;;9.10;;
52102;SDS011;38101;53.126;6.878;2022-08-18T01:55:07;14.23;;;8.45;;
52102;SDS011;38101;53.126;6.878;2022-08-18T01:57:35;16.40;;;8.70;;
52102;SDS011;38101;53.126;6.878;2022-08-18T02:00:09;12.77;;;8.80;;
52102;SDS011;38101;53.126;6.878;2022-08-18T02:02:37;16.75;;;8.98;;
52102;SDS011;38101;53.126;6.878;2022-08-18T02:05:08;13.85;;;8.68;;
52102;SDS011;38101;53.126;6.878;2022-08-18T02:07:48;14.40;;;9.07;;
52102;SDS011;38101;53.126;6.878;2022-08-18T02:10:13;15.48;;;9.40;;
52102;SDS011;38101;53.126;6.878;2022-08-18T02:12:39;15.07;;;9.88;;
52102;SDS011;38101;53.126;6.878;2022-08-18T02:15:06;12.60;;;8.82;;
52102;SDS011;38101;53.126;6.878;2022-08-18T02:17:36;11.93;;;9.35;;
52102;SDS011;38101;53.126;6.878;2022-08-18T02:20:03;18.13;;;9.48;;
52102;SDS011;38101;53.126;6.878;2022-08-18T02:22:30;13.93;;;9.07;;
52102;SDS011;38101;53.126;6.878;2022-08-18T02:24:56;18.33;;;9.10;;
52102;SDS011;38101;53.126;6.878;2022-08-18T02:27:22;13.52;;;9.02;;
52102;SDS011;38101;53.126;6.878;2022-08-18T02:29:47;13.07;;;8.75;;
52102;SDS011;38101;53.126;6.878;2022-08-18T02:32:13;16.33;;;9.00;;
52102;SDS011;38101;53.126;6.878;2022-08-18T02:34:39;14.10;;;9.00;;
52102;SDS011;38101;53.126;6.878;2022-08-18T02:37:06;14.75;;;8.95;;
52102;SDS011;38101;53.126;6.878;2022-08-18T02:39:33;16.42;;;9.35;;
52102;SDS011;38101;53.126;6.878;2022-08-18T02:42:02;14.20;;;8.48;;
52102;SDS011;38101;53.126;6.878;2022-08-18T02:44:29;14.65;;;8.68;;
52102;SDS011;38101;53.126;6.878;2022-08-18T02:46:56;13.07;;;9.32;;
52102;SDS011;38101;53.126;6.878;2022-08-18T02:49:21;15.25;;;8.90;;
52102;SDS011;38101;53.126;6.878;2022-08-18T02:51:48;12.30;;;8.63;;
52102;SDS011;38101;53.126;6.878;2022-08-18T02:54:15;15.25;;;9.32;;
52102;SDS011;38101;53.126;6.878;2022-08-18T02:56:42;17.02;;;10.15;;
52102;SDS011;38101;53.126;6.878;2022-08-18T02:59:11;12.32;;;8.02;;
52102;SDS011;38101;53.126;6.878;2022-08-18T03:01:40;18.98;;;9.38;;
52102;SDS011;38101;53.126;6.878;2022-08-18T03:04:08;15.85;;;9.65;;
52102;SDS011;38101;53.126;6.878;2022-08-18T03:06:36;16.73;;;9.43;;
52102;SDS011;38101;53.126;6.878;2022-08-18T03:09:04;26.75;;;10.93;;
52102;SDS011;38101;53.126;6.878;2022-08-18T03:11:31;18.58;;;9.95;;
52102;SDS011;38101;53.126;6.878;2022-08-18T03:13:57;16.95;;;9.95;;
52102;SDS011;38101;53.126;6.878;2022-08-18T03:16:23;14.70;;;10.00;;
52102;SDS011;38101;53.126;6.878;2022-08-18T03:18:49;17.02;;;9.55;;
52102;SDS011;38101;53.126;6.878;2022-08-18T03:21:17;15.48;;;9.65;;
52102;SDS011;38101;53.126;6.878;2022-08-18T03:23:46;17.45;;;9.65;;
52102;SDS011;38101;53.126;6.878;2022-08-18T03:26:14;20.20;;;10.00;;
52102;SDS011;38101;53.126;6.878;2022-08-18T03:28:41;16.08;;;9.45;;
52102;SDS011;38101;53.126;6.878;2022-08-18T03:31:09;17.70;;;9.10;;
52102;SDS011;38101;53.126;6.878;2022-08-18T03:33:35;14.82;;;9.23;;
52102;SDS011;38101;53.126;6.878;2022-08-18T03:36:02;18.08;;;10.13;;
52102;SDS011;38101;53.126;6.878;2022-08-18T03:38:32;19.30;;;10.38;;
52102;SDS011;38101;53.126;6.878;2022-08-18T03:40:58;18.00;;;9.68;;
52102;SDS011;38101;53.126;6.878;2022-08-18T03:43:24;15.27;;;9.30;;
52102;SDS011;38101;53.126;6.878;2022-08-18T03:45:51;17.80;;;9.50;;
52102;SDS011;38101;53.126;6.878;2022-08-18T03:48:18;17.02;;;9.55;;
52102;SDS011;38101;53.126;6.878;2022-08-18T03:50:45;13.75;;;8.82;;
52102;SDS011;38101;53.126;6.878;2022-08-18T03:53:12;14.38;;;8.68;;
52102;SDS011;38101;53.126;6.878;2022-08-18T03:55:41;15.50;;;8.85;;
52102;SDS011;38101;53.126;6.878;2022-08-18T03:58:07;16.90;;;9.40;;
52102;SDS011;38101;53.126;6.878;2022-08-18T04:00:38;15.27;;;9.13;;
52102;SDS011;38101;53.126;6.878;2022-08-18T04:03:04;14.57;;;9.05;;
52102;SDS011;38101;53.126;6.878;2022-08-18T04:05:30;18.67;;;9.05;;
52102;SDS011;38101;53.126;6.878;2022-08-18T04:07:56;17.77;;;8.95;;
52102;SDS011;38101;53.126;6.878;2022-08-18T04:10:23;13.50;;;8.30;;
52102;SDS011;38101;53.126;6.878;2022-08-18T04:12:49;15.35;;;8.50;;
52102;SDS011;38101;53.126;6.878;2022-08-18T04:15:15;17.92;;;8.02;;
52102;SDS011;38101;53.126;6.878;2022-08-18T04:17:41;15.23;;;8.35;;
52102;SDS011;38101;53.126;6.878;2022-08-18T04:20:09;15.55;;;8.48;;
52102;SDS011;38101;53.126;6.878;2022-08-18T04:22:37;13.77;;;8.18;;
52102;SDS011;38101;53.126;6.878;2022-08-18T04:25:05;13.00;;;7.13;;
52102;SDS011;38101;53.126;6.878;2022-08-18T04:27:35;14.98;;;8.30;;
52102;SDS011;38101;53.126;6.878;2022-08-18T04:30:03;15.38;;;8.32;;
52102;SDS011;38101;53.126;6.878;2022-08-18T04:32:30;11.60;;;8.00;;
52102;SDS011;38101;53.126;6.878;2022-08-18T04:34:56;13.10;;;7.93;;
52102;SDS011;38101;53.126;6.878;2022-08-18T04:37:22;15.48;;;7.72;;
52102;SDS011;38101;53.126;6.878;2022-08-18T04:39:48;15.10;;;8.43;;
52102;SDS011;38101;53.126;6.878;2022-08-18T04:42:14;11.77;;;8.68;;
52102;SDS011;38101;53.126;6.878;2022-08-18T04:44:40;11.65;;;8.48;;
52102;SDS011;38101;53.126;6.878;2022-08-18T04:47:06;14.30;;;8.10;;
52102;SDS011;38101;53.126;6.878;2022-08-18T04:49:37;15.93;;;8.73;;
52102;SDS011;38101;53.126;6.878;2022-08-18T04:52:03;16.92;;;8.82;;
52102;SDS011;38101;53.126;6.878;2022-08-18T04:54:48;14.68;;;8.07;;
52102;SDS011;38101;53.126;6.878;2022-08-18T04:57:16;14.90;;;8.52;;
52102;SDS011;38101;53.126;6.878;2022-08-18T04:59:44;14.38;;;8.38;;
52102;SDS011;38101;53.126;6.878;2022-08-18T05:02:11;13.48;;;8.00;;
52102;SDS011;38101;53.126;6.878;2022-08-18T05:04:39;17.95;;;8.70;;
52102;SDS011;38101;53.126;6.878;2022-08-18T05:07:07;14.55;;;8.30;;
52102;SDS011;38101;53.126;6.878;2022-08-18T05:09:34;16.13;;;8.77;;
52102;SDS011;38101;53.126;6.878;2022-08-18T05:12:01;14.48;;;8.57;;
52102;SDS011;38101;53.126;6.878;2022-08-18T05:14:28;18.02;;;8.68;;
52102;SDS011;38101;53.126;6.878;2022-08-18T05:17:02;17.85;;;8.43;;
52102;SDS011;38101;53.126;6.878;2022-08-18T05:19:29;16.15;;;8.65;;
52102;SDS011;38101;53.126;6.878;2022-08-18T05:21:55;14.68;;;8.60;;
52102;SDS011;38101;53.126;6.878;2022-08-18T05:24:22;14.23;;;8.30;;
52102;SDS011;38101;53.126;6.878;2022-08-18T05:26:50;16.35;;;8.38;;
52102;SDS011;38101;53.126;6.878;2022-08-18T05:29:16;14.52;;;8.20;;
52102;SDS011;38101;53.126;6.878;2022-08-18T05:31:43;17.48;;;9.20;;
52102;SDS011;38101;53.126;6.878;2022-08-18T05:34:10;16.45;;;8.48;;
52102;SDS011;38101;53.126;6.878;2022-08-18T05:37:00;12.07;;;8.23;;
52102;SDS011;38101;53.126;6.878;2022-08-18T05:40:00;11.43;;;8.10;;
52102;SDS011;38101;53.126;6.878;2022-08-18T05:42:28;14.32;;;8.57;;
52102;SDS011;38101;53.126;6.878;2022-08-18T05:45:09;14.15;;;8.30;;
52102;SDS011;38101;53.126;6.878;2022-08-18T05:47:36;13.75;;;8.38;;
52102;SDS011;38101;53.126;6.878;2022-08-18T05:50:10;12.95;;;8.80;;
52102;SDS011;38101;53.126;6.878;2022-08-18T05:58:22;14.45;;;8.50;;
52102;SDS011;38101;53.126;6.878;2022-08-18T06:00:54;16.38;;;9.68;;
52102;SDS011;38101;53.126;6.878;2022-08-18T06:03:27;14.50;;;9.05;;
52102;SDS011;38101;53.126;6.878;2022-08-18T06:06:00;14.73;;;8.95;;
52102;SDS011;38101;53.126;6.878;2022-08-18T06:08:35;12.10;;;8.80;;
52102;SDS011;38101;53.126;6.878;2022-08-18T06:11:09;12.80;;;8.48;;
52102;SDS011;38101;53.126;6.878;2022-08-18T06:13:37;16.38;;;8.75;;
52102;SDS011;38101;53.126;6.878;2022-08-18T06:18:49;11.02;;;7.43;;
52102;SDS011;38101;53.126;6.878;2022-08-18T06:29:53;10.95;;;7.00;;
52102;SDS011;38101;53.126;6.878;2022-08-18T06:35:17;9.25;;;6.57;;
52102;SDS011;38101;53.126;6.878;2022-08-18T06:38:12;10.45;;;7.45;;
52102;SDS011;38101;53.126;6.878;2022-08-18T06:43:27;12.57;;;7.13;;
52102;SDS011;38101;53.126;6.878;2022-08-18T06:45:56;14.40;;;8.15;;
52102;SDS011;38101;53.126;6.878;2022-08-18T06:50:55;10.38;;;6.85;;
52102;SDS011;38101;53.126;6.878;2022-08-18T06:53:48;10.43;;;7.22;;
52102;SDS011;38101;53.126;6.878;2022-08-18T06:56:25;8.48;;;6.72;;
52102;SDS011;38101;53.126;6.878;2022-08-18T06:59:42;13.10;;;7.25;;
52102;SDS011;38101;53.126;6.878;2022-08-18T07:04:59;12.25;;;6.95;;
52102;SDS011;38101;53.126;6.878;2022-08-18T07:07:38;12.27;;;7.13;;
52102;SDS011;38101;53.126;6.878;2022-08-18T07:10:07;10.38;;;7.22;;
52102;SDS011;38101;53.126;6.878;2022-08-18T07:13:04;8.55;;;6.50;;
52102;SDS011;38101;53.126;6.878;2022-08-18T07:15:51;12.57;;;6.80;;
52102;SDS011;38101;53.126;6.878;2022-08-18T07:18:20;12.13;;;6.60;;
52102;SDS011;38101;53.126;6.878;2022-08-18T07:20:53;10.20;;;6.20;;
52102;SDS011;38101;53.126;6.878;2022-08-18T07:26:21;11.80;;;7.20;;
52102;SDS011;38101;53.126;6.878;2022-08-18T07:28:48;11.90;;;6.53;;
52102;SDS011;38101;53.126;6.878;2022-08-18T07:34:02;11.05;;;5.93;;
52102;SDS011;38101;53.126;6.878;2022-08-18T07:36:41;11.05;;;6.05;;
52102;SDS011;38101;53.126;6.878;2022-08-18T07:39:14;11.38;;;5.88;;
52102;SDS011;38101;53.126;6.878;2022-08-18T07:41:49;10.23;;;5.72;;
52102;SDS011;38101;53.126;6.878;2022-08-18T07:47:21;11.55;;;5.97;;
52102;SDS011;38101;53.126;6.878;2022-08-18T07:49:51;8.80;;;5.45;;
52102;SDS011;38101;53.126;6.878;2022-08-18T07:52:43;9.02;;;5.28;;
52102;SDS011;38101;53.126;6.878;2022-08-18T07:55:32;10.93;;;5.30;;
52102;SDS011;38101;53.126;6.878;2022-08-18T08:00:53;8.27;;;5.45;;
52102;SDS011;38101;53.126;6.878;2022-08-18T08:03:33;9.98;;;5.30;;
52102;SDS011;38101;53.126;6.878;2022-08-18T08:16:41;5.82;;;4.15;;
52102;SDS011;38101;53.126;6.878;2022-08-18T08:22:15;11.32;;;5.00;;
52102;SDS011;38101;53.126;6.878;2022-08-18T08:30:17;7.78;;;4.38;;
52102;SDS011;38101;53.126;6.878;2022-08-18T08:32:56;6.75;;;4.10;;
52102;SDS011;38101;53.126;6.878;2022-08-18T08:38:47;6.78;;;3.88;;
52102;SDS011;38101;53.126;6.878;2022-08-18T08:44:02;6.57;;;3.85;;
52102;SDS011;38101;53.126;6.878;2022-08-18T08:51:53;5.78;;;3.40;;
52102;SDS011;38101;53.126;6.878;2022-08-18T08:54:29;8.02;;;3.60;;
52102;SDS011;38101;53.126;6.878;2022-08-18T08:57:16;5.57;;;3.53;;
52102;SDS011;38101;53.126;6.878;2022-08-18T08:59:43;7.35;;;3.50;;
52102;SDS011;38101;53.126;6.878;2022-08-18T09:04:51;8.60;;;3.80;;
52102;SDS011;38101;53.126;6.878;2022-08-18T09:10:44;8.02;;;3.55;;
52102;SDS011;38101;53.126;6.878;2022-08-18T09:16:14;5.88;;;3.40;;
52102;SDS011;38101;53.126;6.878;2022-08-18T09:24:24;6.25;;;3.75;;
52102;SDS011;38101;53.126;6.878;2022-08-18T09:27:15;7.45;;;3.70;;
52102;SDS011;38101;53.126;6.878;2022-08-18T09:29:54;6.95;;;3.63;;
52102;SDS011;38101;53.126;6.878;2022-08-18T09:38:05;4.25;;;3.03;;
52102;SDS011;38101;53.126;6.878;2022-08-18T09:41:05;5.32;;;3.70;;
52102;SDS011;38101;53.126;6.878;2022-08-18T09:43:55;6.38;;;3.83;;
52102;SDS011;38101;53.126;6.878;2022-08-18T09:57:23;7.10;;;4.15;;
52102;SDS011;38101;53.126;6.878;2022-08-18T10:07:43;7.25;;;3.78;;
52102;SDS011;38101;53.126;6.878;2022-08-18T10:10:20;4.63;;;3.42;;
52102;SDS011;38101;53.126;6.878;2022-08-18T10:16:17;5.07;;;3.08;;
52102;SDS011;38101;53.126;6.878;2022-08-18T10:24:27;5.75;;;3.00;;
52102;SDS011;38101;53.126;6.878;2022-08-18T10:27:03;23.05;;;7.72;;
52102;SDS011;38101;53.126;6.878;2022-08-18T10:29:47;7.30;;;3.85;;
52102;SDS011;38101;53.126;6.878;2022-08-18T10:32:16;6.95;;;3.17;;
52102;SDS011;38101;53.126;6.878;2022-08-18T10:34:48;5.65;;;3.42;;
52102;SDS011;38101;53.126;6.878;2022-08-18T10:45:43;5.70;;;3.60;;
52102;SDS011;38101;53.126;6.878;2022-08-18T10:58:51;6.05;;;3.42;;
52102;SDS011;38101;53.126;6.878;2022-08-18T11:04:08;6.13;;;3.45;;
52102;SDS011;38101;53.126;6.878;2022-08-18T11:06:52;5.35;;;3.08;;
52102;SDS011;38101;53.126;6.878;2022-08-18T11:09:31;6.47;;;3.30;;
52102;SDS011;38101;53.126;6.878;2022-08-18T11:11:59;4.30;;;2.90;;
52102;SDS011;38101;53.126;6.878;2022-08-18T11:14:38;5.13;;;3.20;;
52102;SDS011;38101;53.126;6.878;2022-08-18T11:18:09;4.90;;;3.13;;
52102;SDS011;38101;53.126;6.878;2022-08-18T11:20:20;6.88;;;3.28;;
52102;SDS011;38101;53.126;6.878;2022-08-18T11:22:52;6.50;;;3.38;;
52102;SDS011;38101;53.126;6.878;2022-08-18T11:25:24;5.03;;;3.47;;
52102;SDS011;38101;53.126;6.878;2022-08-18T11:27:53;5.90;;;3.40;;
52102;SDS011;38101;53.126;6.878;2022-08-18T11:30:20;8.02;;;4.20;;
52102;SDS011;38101;53.126;6.878;2022-08-18T11:32:50;7.18;;;3.95;;
52102;SDS011;38101;53.126;6.878;2022-08-18T11:35:20;6.38;;;3.88;;
52102;SDS011;38101;53.126;6.878;2022-08-18T11:37:58;6.47;;;3.55;;
52102;SDS011;38101;53.126;6.878;2022-08-18T11:40:35;7.07;;;3.13;;
52102;SDS011;38101;53.126;6.878;2022-08-18T11:43:03;7.57;;;3.38;;
52102;SDS011;38101;53.126;6.878;2022-08-18T11:53:24;5.32;;;3.08;;
52102;SDS011;38101;53.126;6.878;2022-08-18T11:58:50;6.07;;;2.90;;
52102;SDS011;38101;53.126;6.878;2022-08-18T12:04:06;3.95;;;2.55;;
52102;SDS011;38101;53.126;6.878;2022-08-18T12:09:30;6.07;;;2.63;;
52102;SDS011;38101;53.126;6.878;2022-08-18T12:12:15;4.68;;;2.60;;
52102;SDS011;38101;53.126;6.878;2022-08-18T12:17:19;6.18;;;2.80;;
52102;SDS011;38101;53.126;6.878;2022-08-18T12:19:45;5.80;;;2.88;;
52102;SDS011;38101;53.126;6.878;2022-08-18T12:22:15;5.57;;;2.72;;
52102;SDS011;38101;53.126;6.878;2022-08-18T12:24:59;5.35;;;2.80;;
52102;SDS011;38101;53.126;6.878;2022-08-18T12:27:26;5.20;;;2.78;;
52102;SDS011;38101;53.126;6.878;2022-08-18T12:29:54;4.63;;;2.72;;
52102;SDS011;38101;53.126;6.878;2022-08-18T12:32:23;5.03;;;2.60;;
52102;SDS011;38101;53.126;6.878;2022-08-18T12:34:50;3.45;;;2.50;;
52102;SDS011;38101;53.126;6.878;2022-08-18T12:37:17;4.70;;;2.75;;
52102;SDS011;38101;53.126;6.878;2022-08-18T12:39:45;6.68;;;2.95;;
52102;SDS011;38101;53.126;6.878;2022-08-18T12:42:11;6.60;;;2.60;;
52102;SDS011;38101;53.126;6.878;2022-08-18T12:44:37;5.13;;;2.80;;
52102;SDS011;38101;53.126;6.878;2022-08-18T12:47:05;5.40;;;2.63;;
52102;SDS011;38101;53.126;6.878;2022-08-18T12:49:37;5.00;;;2.78;;
52102;SDS011;38101;53.126;6.878;2022-08-18T12:52:03;4.93;;;2.70;;
52102;SDS011;38101;53.126;6.878;2022-08-18T12:54:30;5.93;;;2.92;;
52102;SDS011;38101;53.126;6.878;2022-08-18T12:56:57;6.57;;;3.22;;
52102;SDS011;38101;53.126;6.878;2022-08-18T12:59:24;5.82;;;2.95;;
52102;SDS011;38101;53.126;6.878;2022-08-18T13:01:50;5.53;;;2.78;;
52102;SDS011;38101;53.126;6.878;2022-08-18T13:04:17;4.53;;;2.78;;
52102;SDS011;38101;53.126;6.878;2022-08-18T13:06:44;5.95;;;2.70;;
52102;SDS011;38101;53.126;6.878;2022-08-18T13:09:11;4.90;;;2.45;;
52102;SDS011;38101;53.126;6.878;2022-08-18T13:11:37;4.18;;;2.80;;
52102;SDS011;38101;53.126;6.878;2022-08-18T13:14:03;5.32;;;3.08;;
52102;SDS011;38101;53.126;6.878;2022-08-18T13:16:30;5.32;;;2.70;;
52102;SDS011;38101;53.126;6.878;2022-08-18T13:18:58;5.18;;;2.85;;
52102;SDS011;38101;53.126;6.878;2022-08-18T13:21:23;4.63;;;2.75;;
52102;SDS011;38101;53.126;6.878;2022-08-18T13:23:49;4.20;;;2.70;;
52102;SDS011;38101;53.126;6.878;2022-08-18T13:26:18;4.25;;;2.70;;
52102;SDS011;38101;53.126;6.878;2022-08-18T13:31:14;6.82;;;2.80;;
52102;SDS011;38101;53.126;6.878;2022-08-18T13:33:40;5.60;;;2.70;;
52102;SDS011;38101;53.126;6.878;2022-08-18T13:36:06;5.47;;;2.95;;
52102;SDS011;38101;53.126;6.878;2022-08-18T13:38:32;4.80;;;3.00;;
52102;SDS011;38101;53.126;6.878;2022-08-18T13:40:58;4.93;;;2.53;;
52102;SDS011;38101;53.126;6.878;2022-08-18T13:43:36;4.47;;;3.10;;
52102;SDS011;38101;53.126;6.878;2022-08-18T13:46:06;6.30;;;3.00;;
52102;SDS011;38101;53.126;6.878;2022-08-18T13:48:33;5.38;;;2.80;;
52102;SDS011;38101;53.126;6.878;2022-08-18T13:50:59;5.93;;;2.88;;
52102;SDS011;38101;53.126;6.878;2022-08-18T13:53:27;5.70;;;3.28;;
52102;SDS011;38101;53.126;6.878;2022-08-18T13:55:54;3.65;;;2.60;;
52102;SDS011;38101;53.126;6.878;2022-08-18T13:58:23;4.57;;;3.10;;
52102;SDS011;38101;53.126;6.878;2022-08-18T14:00:54;4.25;;;2.92;;
52102;SDS011;38101;53.126;6.878;2022-08-18T14:03:22;4.03;;;2.70;;
52102;SDS011;38101;53.126;6.878;2022-08-18T14:05:49;5.88;;;2.78;;
52102;SDS011;38101;53.126;6.878;2022-08-18T14:08:15;5.82;;;2.80;;
52102;SDS011;38101;53.126;6.878;2022-08-18T14:10:41;3.85;;;2.55;;
52102;SDS011;38101;53.126;6.878;2022-08-18T14:13:07;5.60;;;3.22;;
52102;SDS011;38101;53.126;6.878;2022-08-18T14:15:33;4.07;;;2.80;;
52102;SDS011;38101;53.126;6.878;2022-08-18T14:18:03;4.07;;;2.83;;
52102;SDS011;38101;53.126;6.878;2022-08-18T14:20:29;5.20;;;3.03;;
52102;SDS011;38101;53.126;6.878;2022-08-18T14:23:14;4.40;;;2.70;;
52102;SDS011;38101;53.126;6.878;2022-08-18T14:25:58;7.10;;;2.75;;
52102;SDS011;38101;53.126;6.878;2022-08-18T14:28:43;5.60;;;2.92;;
52102;SDS011;38101;53.126;6.878;2022-08-18T14:31:09;4.10;;;2.55;;
52102;SDS011;38101;53.126;6.878;2022-08-18T14:33:38;3.85;;;2.70;;
52102;SDS011;38101;53.126;6.878;2022-08-18T14:36:05;4.18;;;2.92;;
52102;SDS011;38101;53.126;6.878;2022-08-18T14:38:31;4.90;;;3.00;;
52102;SDS011;38101;53.126;6.878;2022-08-18T14:40:58;3.90;;;2.60;;
52102;SDS011;38101;53.126;6.878;2022-08-18T14:43:26;5.10;;;2.80;;
52102;SDS011;38101;53.126;6.878;2022-08-18T14:45:53;4.65;;;2.88;;
52102;SDS011;38101;53.126;6.878;2022-08-18T14:48:19;5.28;;;2.53;;
52102;SDS011;38101;53.126;6.878;2022-08-18T14:50:51;5.97;;;2.75;;
52102;SDS011;38101;53.126;6.878;2022-08-18T14:53:19;5.00;;;2.70;;
52102;SDS011;38101;53.126;6.878;2022-08-18T14:55:48;5.70;;;2.97;;
52102;SDS011;38101;53.126;6.878;2022-08-18T14:58:23;5.72;;;2.90;;
52102;SDS011;38101;53.126;6.878;2022-08-18T15:00:52;4.90;;;3.00;;
52102;SDS011;38101;53.126;6.878;2022-08-18T15:03:19;4.03;;;3.17;;
52102;SDS011;38101;53.126;6.878;2022-08-18T15:05:46;4.30;;;2.90;;
52102;SDS011;38101;53.126;6.878;2022-08-18T15:08:12;4.50;;;3.08;;
52102;SDS011;38101;53.126;6.878;2022-08-18T15:10:37;3.80;;;2.88;;
52102;SDS011;38101;53.126;6.878;2022-08-18T15:13:04;3.50;;;2.92;;
52102;SDS011;38101;53.126;6.878;2022-08-18T15:15:30;4.70;;;3.00;;
52102;SDS011;38101;53.126;6.878;2022-08-18T15:17:56;3.40;;;2.67;;
52102;SDS011;38101;53.126;6.878;2022-08-18T15:20:24;4.55;;;2.83;;
52102;SDS011;38101;53.126;6.878;2022-08-18T15:22:51;3.78;;;2.47;;
52102;SDS011;38101;53.126;6.878;2022-08-18T15:25:36;3.97;;;2.50;;
52102;SDS011;38101;53.126;6.878;2022-08-18T15:28:12;4.03;;;3.00;;
52102;SDS011;38101;53.126;6.878;2022-08-18T15:30:45;4.18;;;2.72;;
52102;SDS011;38101;53.126;6.878;2022-08-18T15:33:12;5.22;;;2.80;;
52102;SDS011;38101;53.126;6.878;2022-08-18T15:35:40;4.80;;;3.10;;
52102;SDS011;38101;53.126;6.878;2022-08-18T15:38:07;4.63;;;3.03;;
52102;SDS011;38101;53.126;6.878;2022-08-18T15:40:37;5.13;;;2.95;;
52102;SDS011;38101;53.126;6.878;2022-08-18T15:43:11;4.68;;;3.15;;
52102;SDS011;38101;53.126;6.878;2022-08-18T15:45:40;5.35;;;2.88;;
52102;SDS011;38101;53.126;6.878;2022-08-18T15:48:09;3.90;;;2.78;;
52102;SDS011;38101;53.126;6.878;2022-08-18T15:50:35;3.50;;;2.60;;
52102;SDS011;38101;53.126;6.878;2022-08-18T15:53:02;4.40;;;2.60;;
52102;SDS011;38101;53.126;6.878;2022-08-18T15:55:31;3.90;;;2.78;;
52102;SDS011;38101;53.126;6.878;2022-08-18T15:57:58;5.47;;;3.00;;
52102;SDS011;38101;53.126;6.878;2022-08-18T16:00:26;5.13;;;2.72;;
52102;SDS011;38101;53.126;6.878;2022-08-18T16:03:01;3.92;;;2.70;;
52102;SDS011;38101;53.126;6.878;2022-08-18T16:05:30;3.90;;;2.75;;
52102;SDS011;38101;53.126;6.878;2022-08-18T16:07:59;4.25;;;2.92;;
52102;SDS011;38101;53.126;6.878;2022-08-18T16:10:27;5.18;;;2.58;;
52102;SDS011;38101;53.126;6.878;2022-08-18T16:12:56;4.97;;;2.67;;
52102;SDS011;38101;53.126;6.878;2022-08-18T16:15:23;4.55;;;2.83;;
52102;SDS011;38101;53.126;6.878;2022-08-18T16:17:50;3.67;;;2.60;;
52102;SDS011;38101;53.126;6.878;2022-08-18T16:20:18;3.83;;;2.65;;
52102;SDS011;38101;53.126;6.878;2022-08-18T16:22:45;4.05;;;2.60;;
52102;SDS011;38101;53.126;6.878;2022-08-18T16:25:12;6.35;;;2.72;;
52102;SDS011;38101;53.126;6.878;2022-08-18T16:27:38;4.43;;;2.58;;
52102;SDS011;38101;53.126;6.878;2022-08-18T16:30:08;3.75;;;2.58;;
52102;SDS011;38101;53.126;6.878;2022-08-18T16:32:36;3.55;;;2.67;;
52102;SDS011;38101;53.126;6.878;2022-08-18T16:35:02;3.22;;;2.28;;
52102;SDS011;38101;53.126;6.878;2022-08-18T16:37:28;4.13;;;2.70;;
52102;SDS011;38101;53.126;6.878;2022-08-18T16:39:54;4.15;;;2.80;;
52102;SDS011;38101;53.126;6.878;2022-08-18T16:42:20;3.90;;;2.65;;
52102;SDS011;38101;53.126;6.878;2022-08-18T16:44:47;5.30;;;2.60;;
52102;SDS011;38101;53.126;6.878;2022-08-18T16:47:13;3.25;;;2.55;;
52102;SDS011;38101;53.126;6.878;2022-08-18T16:49:42;5.05;;;2.78;;
52102;SDS011;38101;53.126;6.878;2022-08-18T16:52:09;8.75;;;3.20;;
52102;SDS011;38101;53.126;6.878;2022-08-18T16:54:36;4.70;;;2.63;;
52102;SDS011;38101;53.126;6.878;2022-08-18T16:57:02;4.10;;;2.50;;
52102;SDS011;38101;53.126;6.878;2022-08-18T16:59:28;3.53;;;2.40;;
52102;SDS011;38101;53.126;6.878;2022-08-18T17:04:56;4.88;;;2.60;;
52102;SDS011;38101;53.126;6.878;2022-08-18T17:07:26;5.85;;;3.05;;
52102;SDS011;38101;53.126;6.878;2022-08-18T17:09:56;4.85;;;2.28;;
52102;SDS011;38101;53.126;6.878;2022-08-18T17:12:23;4.13;;;2.38;;
52102;SDS011;38101;53.126;6.878;2022-08-18T17:14:49;5.10;;;2.50;;
52102;SDS011;38101;53.126;6.878;2022-08-18T17:17:15;3.97;;;2.55;;
52102;SDS011;38101;53.126;6.878;2022-08-18T17:19:42;3.72;;;2.42;;
52102;SDS011;38101;53.126;6.878;2022-08-18T17:22:09;3.55;;;2.15;;
52102;SDS011;38101;53.126;6.878;2022-08-18T17:24:35;3.38;;;2.53;;
52102;SDS011;38101;53.126;6.878;2022-08-18T17:27:25;3.90;;;2.53;;
52102;SDS011;38101;53.126;6.878;2022-08-18T17:35:04;3.50;;;2.33;;
52102;SDS011;38101;53.126;6.878;2022-08-18T17:37:32;6.00;;;2.58;;
52102;SDS011;38101;53.126;6.878;2022-08-18T17:40:16;4.95;;;2.80;;
52102;SDS011;38101;53.126;6.878;2022-08-18T17:42:48;4.10;;;2.38;;
52102;SDS011;38101;53.126;6.878;2022-08-18T17:45:14;6.38;;;2.50;;
52102;SDS011;38101;53.126;6.878;2022-08-18T17:50:08;4.13;;;2.20;;
52102;SDS011;38101;53.126;6.878;2022-08-18T17:53:19;3.08;;;2.25;;
52102;SDS011;38101;53.126;6.878;2022-08-18T17:55:48;4.10;;;2.20;;
52102;SDS011;38101;53.126;6.878;2022-08-18T18:01:17;3.63;;;2.42;;
52102;SDS011;38101;53.126;6.878;2022-08-18T18:03:43;4.05;;;2.72;;